Time;durP1;ratioP1;P1;durP2;ratioP2;P2;SDS_P1;SDS_P2;PMS_P1;PMS_P2;Temp;Humidity;BMP_temperature;BMP_pressure;BME280_temperature;BME280_humidity;BME280_pressure;Samples;Min_cycle;Max_cycle;Signal;HPM_P1;HPM_P2
2023/12/01 00:01:05;;;;;;;60.60;25.40;;;;;;;-0.22;100.00;99250.56;10472798;28;20049;-80
2023/12/01 00:06:09;;;;;;;64.72;28.17;;;;;;;-0.21;100.00;99260.19;10494028;28;20047;-80
2023/12/01 00:11:13;;;;;;;68.88;29.75;;;;;;;-0.17;100.00;99261.72;10487647;28;20108;-80
2023/12/01 00:16:16;;;;;;;64.20;28.63;;;;;;;-0.16;100.00;99259.00;10478170;28;20047;-79
2023/12/01 00:21:20;;;;;;;71.53;27.90;;;;;;;-0.09;100.00;99263.00;10472939;28;20097;-81
2023/12/01 00:26:24;;;;;;;61.67;27.60;;;;;;;-0.03;100.00;99266.25;10496841;28;20063;-79
2023/12/01 00:31:33;;;;;;;61.50;26.50;;;;;;;-0.13;100.00;99264.13;10460084;28;20048;-78
2023/12/01 00:36:36;;;;;;;66.35;27.77;;;;;;;-0.09;100.00;99264.78;10472808;28;20048;-79
2023/12/01 00:41:40;;;;;;;66.45;29.08;;;;;;;-0.07;100.00;99269.06;10484815;28;20059;-78
2023/12/01 00:46:43;;;;;;;62.63;26.70;;;;;;;-0.08;100.00;99266.50;10490508;28;20052;-78
2023/12/01 00:51:46;;;;;;;67.63;27.95;;;;;;;-0.11;100.00;99271.94;10487239;28;20536;-79
2023/12/01 00:56:53;;;;;;;64.22;28.10;;;;;;;-0.17;100.00;99283.69;10463297;28;20045;-79
2023/12/01 01:01:57;;;;;;;55.28;25.30;;;;;;;-0.24;100.00;99284.13;10453587;28;20045;-80
2023/12/01 01:07:00;;;;;;;57.03;26.70;;;;;;;-0.22;100.00;99290.16;10482520;28;20575;-79
2023/12/01 01:12:06;;;;;;;53.70;24.65;;;;;;;-0.26;100.00;99296.53;10503462;28;20044;-79
2023/12/01 01:17:09;;;;;;;51.85;24.17;;;;;;;-0.20;100.00;99304.97;10486272;28;20049;-80
2023/12/01 01:22:12;;;;;;;53.30;23.85;;;;;;;-0.18;100.00;99305.75;10474392;28;20040;-79
2023/12/01 01:27:16;;;;;;;53.63;24.63;;;;;;;-0.25;100.00;99317.56;10464522;28;20543;-78
2023/12/01 01:32:22;;;;;;;55.92;26.85;;;;;;;-0.24;100.00;99308.72;10459083;28;20035;-78
2023/12/01 01:37:25;;;;;;;61.85;26.35;;;;;;;-0.15;100.00;99317.94;10474972;28;20057;-79
2023/12/01 01:42:29;;;;;;;56.30;24.00;;;;;;;-0.12;100.00;99318.59;10462219;28;20276;-79
2023/12/01 01:47:33;;;;;;;49.85;24.00;;;;;;;-0.05;100.00;99327.06;10478660;28;20192;-78
2023/12/01 01:52:37;;;;;;;60.22;27.05;;;;;;;-0.05;100.00;99324.44;10465090;28;20056;-80
2023/12/01 01:57:45;;;;;;;62.78;26.05;;;;;;;-0.06;100.00;99334.09;10474851;28;20055;-79
2023/12/01 02:02:48;;;;;;;53.92;24.33;;;;;;;-0.09;100.00;99331.63;10483261;28;20448;-79
2023/12/01 02:07:52;;;;;;;54.20;23.98;;;;;;;-0.13;100.00;99342.47;10476712;28;20504;-79
2023/12/01 02:12:56;;;;;;;58.80;25.98;;;;;;;-0.22;100.00;99335.00;10455080;28;20043;-79
2023/12/01 02:18:01;;;;;;;61.35;24.70;;;;;;;-0.29;100.00;99347.69;10481042;28;20041;-78
2023/12/01 02:23:06;;;;;;;60.72;25.38;;;;;;;-0.28;100.00;99344.97;10476281;28;20767;-80
2023/12/01 02:28:09;;;;;;;58.65;25.20;;;;;;;-0.33;99.91;99340.84;10473064;28;20785;-79
2023/12/01 02:33:15;;;;;;;50.70;21.90;;;;;;;-0.35;100.00;99348.88;10459828;28;20053;-79
2023/12/01 02:38:23;;;;;;;53.95;24.48;;;;;;;-0.37;99.27;99344.59;10472552;28;20056;-78
2023/12/01 02:43:27;;;;;;;53.88;22.52;;;;;;;-0.39;99.47;99344.66;10486044;28;20048;-79
2023/12/01 02:48:30;;;;;;;55.78;24.30;;;;;;;-0.37;99.87;99340.19;10488677;28;20420;-80
2023/12/01 02:53:34;;;;;;;60.42;27.45;;;;;;;-0.41;98.79;99341.28;10464590;28;20040;-79
2023/12/01 02:58:38;;;;;;;65.93;24.55;;;;;;;-0.41;99.45;99343.91;10493989;28;20474;-80
2023/12/01 03:03:42;;;;;;;69.72;27.25;;;;;;;-0.48;99.69;99339.88;10471616;28;20060;-80
2023/12/01 03:08:48;;;;;;;62.47;25.25;;;;;;;-0.45;99.75;99333.59;10506959;28;20324;-79
2023/12/01 03:13:51;;;;;;;65.93;26.65;;;;;;;-0.56;99.86;99332.38;10489198;28;20063;-80
2023/12/01 03:18:54;;;;;;;59.67;24.27;;;;;;;-0.56;99.93;99344.72;10522957;28;20104;-79
2023/12/01 03:24:01;;;;;;;62.33;24.17;;;;;;;-0.56;100.00;99347.34;10491857;28;20044;-79
2023/12/01 03:29:05;;;;;;;59.38;22.85;;;;;;;-0.57;99.36;99348.28;10483399;28;20413;-80
2023/12/01 03:34:08;;;;;;;62.47;22.73;;;;;;;-0.58;99.46;99350.03;10477432;28;20593;-80
2023/12/01 03:39:12;;;;;;;66.35;22.98;;;;;;;-0.63;99.62;99353.84;10501169;28;20509;-80
2023/12/01 03:44:15;;;;;;;61.50;22.98;;;;;;;-0.69;99.59;99356.81;10490267;28;20079;-79
2023/12/01 03:49:19;;;;;;;59.45;23.05;;;;;;;-0.62;100.00;99355.59;10491614;28;20072;-80
2023/12/01 03:54:23;;;;;;;64.97;23.08;;;;;;;-0.65;99.46;99353.09;10483581;28;20049;-78
2023/12/01 03:59:26;;;;;;;57.78;21.23;;;;;;;-0.64;99.48;99353.00;10489529;28;20049;-78
2023/12/01 04:04:30;;;;;;;58.45;21.08;;;;;;;-0.72;99.13;99361.31;10493682;28;20056;-79
2023/12/01 04:09:35;;;;;;;53.65;20.65;;;;;;;-0.76;98.76;99370.31;10496318;28;20113;-79
2023/12/01 04:14:38;;;;;;;50.88;17.65;;;;;;;-0.76;99.23;99359.78;10490856;28;20283;-78
2023/12/01 04:19:41;;;;;;;53.03;19.83;;;;;;;-0.75;98.97;99372.00;10495979;28;20045;-78
2023/12/01 04:24:47;;;;;;;58.42;20.50;;;;;;;-0.76;99.85;99367.69;10496918;28;20060;-78
2023/12/01 04:29:52;;;;;;;53.15;21.42;;;;;;;-0.83;98.47;99370.69;10500286;28;20029;-77
2023/12/01 04:34:57;;;;;;;55.05;21.35;;;;;;;-0.83;98.75;99379.44;10507006;28;20045;-78
2023/12/01 04:40:01;;;;;;;53.58;20.67;;;;;;;-0.78;99.50;99379.22;10489503;28;20048;-79
2023/12/01 04:45:06;;;;;;;61.17;21.63;;;;;;;-0.82;97.81;99391.72;10465206;28;20061;-80
2023/12/01 04:50:14;;;;;;;50.97;18.70;;;;;;;-0.84;98.84;99403.28;10492375;28;20036;-79
2023/12/01 04:55:21;;;;;;;55.90;18.98;;;;;;;-0.91;98.22;99397.44;10456504;28;20100;-78
2023/12/01 05:00:27;;;;;;;51.17;19.92;;;;;;;-0.92;98.96;99411.56;10477952;28;20084;-78
2023/12/01 05:05:33;;;;;;;48.58;19.52;;;;;;;-0.92;98.03;99406.28;10484284;28;20136;-79
2023/12/01 05:10:44;;;;;;;44.78;15.57;;;;;;;-1.02;98.64;99410.28;10477280;28;20462;-78
2023/12/01 05:15:47;;;;;;;48.35;18.73;;;;;;;-1.05;98.19;99411.28;10470953;28;20041;-79
2023/12/01 05:20:51;;;;;;;52.55;19.25;;;;;;;-1.04;98.32;99415.66;10459546;28;20033;-80
2023/12/01 05:25:56;;;;;;;53.72;18.65;;;;;;;-1.12;97.75;99423.09;10511350;28;20049;-79
2023/12/01 05:30:59;;;;;;;55.90;18.38;;;;;;;-1.13;98.52;99424.00;10478249;28;20036;-80
2023/12/01 05:36:02;;;;;;;50.97;18.45;;;;;;;-1.17;98.39;99422.44;10478255;28;20080;-78
2023/12/01 05:41:09;;;;;;;51.15;19.42;;;;;;;-1.09;98.53;99432.63;10462110;28;20053;-79
2023/12/01 05:46:12;;;;;;;53.22;18.00;;;;;;;-1.10;98.88;99433.53;10467233;28;20049;-79
2023/12/01 05:51:15;;;;;;;47.47;19.17;;;;;;;-1.13;98.65;99449.50;10492903;28;20057;-79
2023/12/01 05:56:20;;;;;;;53.97;20.73;;;;;;;-1.16;98.16;99447.84;10462940;28;20039;-79
2023/12/01 06:01:25;;;;;;;53.00;19.20;;;;;;;-1.22;97.80;99451.63;10471983;28;20089;-79
2023/12/01 06:06:28;;;;;;;49.67;19.55;;;;;;;-1.20;98.45;99459.50;10457243;28;20112;-79
2023/12/01 06:11:33;;;;;;;43.08;16.05;;;;;;;-1.26;97.27;99457.13;10471591;28;20041;-78
2023/12/01 06:16:36;;;;;;;42.83;17.40;;;;;;;-1.23;98.43;99459.63;10479211;28;20041;-78
2023/12/01 06:21:39;;;;;;;43.67;17.95;;;;;;;-1.14;98.36;99468.88;10470206;28;20088;-77
2023/12/01 06:26:44;;;;;;;40.28;16.85;;;;;;;-1.15;97.86;99473.31;10473308;28;20063;-81
2023/12/01 06:31:47;;;;;;;45.58;18.00;;;;;;;-1.16;98.14;99474.22;10490139;28;20048;-81
2023/12/01 06:36:50;;;;;;;57.92;20.42;;;;;;;-1.17;98.08;99477.78;10462843;28;20040;-80
2023/12/01 06:41:55;;;;;;;49.95;19.88;;;;;;;-1.12;98.03;99485.50;10464581;28;20092;-80
2023/12/01 06:46:58;;;;;;;48.20;19.27;;;;;;;-1.13;98.19;99487.25;10452662;28;20036;-79
2023/12/01 06:52:02;;;;;;;42.78;17.35;;;;;;;-1.17;97.12;99493.59;10461553;28;20454;-80
2023/12/01 06:57:07;;;;;;;45.85;18.83;;;;;;;-1.18;97.15;99505.06;10474283;28;20136;-78
2023/12/01 07:02:10;;;;;;;15.40;5.90;;;;;;;-0.96;100.00;99510.16;10476525;28;20126;-78
2023/12/01 07:07:13;;;;;;;49.67;16.73;;;;;;;0.78;100.00;99512.78;10456303;28;20098;-80
2023/12/01 07:12:17;;;;;;;80.13;29.13;;;;;;;0.62;92.32;99525.97;10459331;28;20466;-79
2023/12/01 07:17:21;;;;;;;64.13;24.88;;;;;;;-0.27;93.57;99530.59;10457956;28;20051;-80
2023/12/01 07:22:24;;;;;;;41.38;18.80;;;;;;;-0.61;93.84;99529.56;10471925;28;20053;-79
2023/12/01 07:27:28;;;;;;;32.58;15.73;;;;;;;-0.82;93.46;99539.41;10466361;28;20053;-80
2023/12/01 07:32:31;;;;;;;27.45;14.65;;;;;;;-0.93;93.99;99543.44;10458452;28;20124;-80
2023/12/01 07:37:34;;;;;;;33.13;13.82;;;;;;;-0.88;94.68;99544.94;10467965;28;20052;-78
2023/12/01 07:42:39;;;;;;;25.98;11.75;;;;;;;-0.91;93.74;99550.34;10470055;28;20040;-79
2023/12/01 07:47:43;;;;;;;24.17;11.23;;;;;;;-1.01;92.03;99563.13;10482254;28;20040;-78
2023/12/01 07:52:47;;;;;;;22.33;11.40;;;;;;;-1.07;90.42;99567.81;10494828;28;20043;-79
2023/12/01 07:57:52;;;;;;;26.33;12.32;;;;;;;-1.08;90.74;99568.75;10475423;28;20043;-80
2023/12/01 08:02:55;;;;;;;30.95;13.38;;;;;;;-0.97;92.51;99567.31;10461602;28;20048;-80
2023/12/01 08:07:59;;;;;;;28.13;12.27;;;;;;;-0.90;91.68;99581.09;10476441;28;20045;-80
2023/12/01 08:13:03;;;;;;;23.05;11.55;;;;;;;-0.92;91.27;99590.84;10469137;28;20056;-80
2023/12/01 08:18:06;;;;;;;25.40;11.85;;;;;;;-1.07;88.07;99589.78;10483100;28;20044;-80
2023/12/01 08:23:10;;;;;;;24.77;12.20;;;;;;;-1.08;89.13;99582.78;10453599;28;20400;-80
2023/12/01 08:28:15;;;;;;;24.85;12.88;;;;;;;-1.09;87.87;99586.34;10451905;28;20109;-79
2023/12/01 08:33:18;;;;;;;24.55;12.35;;;;;;;-1.09;88.99;99589.00;10457052;28;20040;-77
2023/12/01 08:38:21;;;;;;;25.38;13.45;;;;;;;-1.00;88.50;99593.81;10469848;28;20087;-80
2023/12/01 08:43:26;;;;;;;29.73;14.07;;;;;;;-1.02;87.63;99592.19;10450160;28;20053;-79
2023/12/01 08:48:33;;;;;;;31.90;14.77;;;;;;;-0.98;88.30;99601.69;10458832;28;20055;-78
2023/12/01 08:53:36;;;;;;;32.53;15.32;;;;;;;-0.99;87.75;99610.50;10482066;28;20061;-79
2023/12/01 08:58:40;;;;;;;30.95;15.52;;;;;;;-0.95;88.62;99610.28;10459586;28;20044;-80
2023/12/01 09:03:43;;;;;;;31.38;14.50;;;;;;;-0.91;88.21;99610.16;10456744;28;20698;-78
2023/12/01 09:08:47;;;;;;;26.65;14.43;;;;;;;-0.97;86.69;99613.94;10470611;28;20045;-78
2023/12/01 09:13:52;;;;;;;30.50;15.55;;;;;;;-0.96;87.31;99613.88;10456291;28;20032;-78
2023/12/01 09:18:55;;;;;;;31.27;16.42;;;;;;;-0.90;87.57;99619.78;10444034;28;20148;-80
2023/12/01 09:23:58;;;;;;;29.65;14.27;;;;;;;-0.93;87.62;99623.41;10446576;28;20049;-80
2023/12/01 09:29:03;;;;;;;32.83;15.80;;;;;;;-0.95;87.24;99630.53;10452394;28;20428;-81
2023/12/01 09:34:06;;;;;;;31.92;15.13;;;;;;;-0.98;87.33;99623.63;10446239;28;20035;-79
2023/12/01 09:39:09;;;;;;;33.30;16.15;;;;;;;-0.85;87.91;99633.59;10495552;28;20041;-80
2023/12/01 09:44:14;;;;;;;27.63;15.00;;;;;;;-0.82;86.90;99636.97;10469603;28;20033;-80
2023/12/01 09:49:17;;;;;;;28.50;14.75;;;;;;;-0.78;86.86;99641.16;10469278;28;20051;-79
2023/12/01 09:54:20;;;;;;;22.88;12.43;;;;;;;-0.80;85.59;99644.78;10457204;28;20132;-82
2023/12/01 09:59:25;;;;;;;24.60;12.50;;;;;;;-0.82;84.66;99644.03;10435493;28;20045;-82
2023/12/01 10:04:28;;;;;;;30.45;13.98;;;;;;;-0.73;86.32;99655.00;10462993;28;20043;-81
2023/12/01 10:09:32;;;;;;;25.10;14.07;;;;;;;-0.61;85.98;99645.66;10448923;28;20416;-81
2023/12/01 10:14:38;;;;;;;27.15;13.50;;;;;;;-0.64;85.78;99642.31;10449825;28;20072;-80
2023/12/01 10:19:47;;;;;;;30.33;14.43;;;;;;;-0.51;86.08;99640.81;10454763;28;20078;-79
2023/12/01 10:24:54;;;;;;;28.30;14.98;;;;;;;-0.44;84.12;99647.50;10452519;28;20045;-81
2023/12/01 10:30:12;;;;;;;25.20;13.43;;;;;;;-0.44;85.27;99654.56;10470393;28;20565;-81
2023/12/01 10:35:16;;;;;;;24.33;12.43;;;;;;;-0.53;82.24;99659.34;10455864;28;20045;-80
2023/12/01 10:40:19;;;;;;;26.08;13.93;;;;;;;-0.52;83.39;99645.25;10454037;28;20055;-81
2023/12/01 10:45:24;;;;;;;24.25;13.18;;;;;;;-0.51;81.66;99646.94;10487681;28;20031;-82
2023/12/01 10:50:28;;;;;;;19.48;10.40;;;;;;;-0.48;80.46;99643.31;10501524;28;20046;-81
2023/12/01 10:55:31;;;;;;;19.35;9.38;;;;;;;-0.47;78.95;99634.44;10456472;28;20404;-82
2023/12/01 11:00:35;;;;;;;16.55;8.95;;;;;;;-0.22;77.34;99628.00;10472226;28;20045;-80
2023/12/01 11:05:41;;;;;;;19.00;8.85;;;;;;;0.01;77.99;99622.47;10474518;28;20041;-81
2023/12/01 11:10:56;;;;;;;17.98;9.40;;;;;;;0.12;78.75;99621.94;10460231;28;20040;-82
2023/12/01 11:16:01;;;;;;;17.52;9.85;;;;;;;0.12;79.05;99625.41;10468939;28;20049;-81
2023/12/01 11:21:05;;;;;;;16.42;9.88;;;;;;;0.01;78.65;99617.19;10470477;28;20045;-82
2023/12/01 11:26:10;;;;;;;16.73;9.68;;;;;;;-0.07;79.41;99625.47;10474014;28;20041;-81
2023/12/01 11:31:19;;;;;;;20.63;11.07;;;;;;;-0.06;79.66;99619.25;10464476;28;20120;-81
2023/12/01 11:36:30;;;;;;;20.92;11.85;;;;;;;-0.10;78.85;99622.97;10467968;28;20067;-81
2023/12/01 11:41:34;;;;;;;20.92;11.38;;;;;;;-0.31;77.92;99624.03;10465757;28;20045;-82
2023/12/01 11:46:39;;;;;;;17.95;10.23;;;;;;;-0.25;78.96;99612.31;10471844;28;20110;-80
2023/12/01 11:51:44;;;;;;;18.13;10.07;;;;;;;-0.20;76.22;99607.66;10481980;28;20052;-81
2023/12/01 11:56:48;;;;;;;15.77;9.18;;;;;;;-0.03;76.40;99615.59;10501210;28;20412;-81
2023/12/01 12:01:56;;;;;;;20.52;10.38;;;;;;;0.23;76.06;99618.75;10494590;28;20040;-82
2023/12/01 12:07:00;;;;;;;19.15;9.43;;;;;;;0.12;74.42;99617.50;10474469;28;20053;-80
2023/12/01 12:12:09;;;;;;;21.63;11.95;;;;;;;0.08;76.01;99615.06;10476131;28;20067;-82
2023/12/01 12:17:14;;;;;;;18.25;9.40;;;;;;;0.02;74.47;99610.09;10464340;28;20041;-82
2023/12/01 12:22:17;;;;;;;15.02;9.07;;;;;;;-0.04;73.85;99607.78;10471088;28;20041;-81
2023/12/01 12:27:21;;;;;;;18.63;9.00;;;;;;;-0.00;74.04;99614.59;10461865;28;20041;-81
2023/12/01 12:32:25;;;;;;;14.48;8.25;;;;;;;-0.21;71.66;99617.38;10462071;28;20455;-82
2023/12/01 12:37:28;;;;;;;14.10;8.02;;;;;;;-0.27;71.41;99617.69;10468428;28;20063;-80
2023/12/01 12:42:32;;;;;;;17.50;8.95;;;;;;;-0.04;72.10;99613.06;10487983;28;20577;-81
2023/12/01 12:47:39;;;;;;;19.27;8.77;;;;;;;-0.10;71.75;99620.34;10495444;28;20716;-82
2023/12/01 12:52:42;;;;;;;16.90;9.10;;;;;;;-0.11;72.88;99637.13;10492852;28;20052;-81
2023/12/01 12:57:45;;;;;;;16.60;8.27;;;;;;;-0.10;72.83;99627.41;10473629;28;20041;-81
2023/12/01 13:02:52;;;;;;;16.00;7.95;;;;;;;-0.20;72.44;99626.16;10475175;28;20052;-80
2023/12/01 13:07:55;;;;;;;13.40;8.73;;;;;;;-0.19;72.87;99631.38;10473134;28;20044;-81
2023/12/01 13:12:58;;;;;;;14.48;8.38;;;;;;;-0.11;72.65;99626.56;10469022;28;20067;-80
2023/12/01 13:18:02;;;;;;;14.45;8.10;;;;;;;-0.04;73.47;99632.38;10472511;28;20041;-80
2023/12/01 13:23:06;;;;;;;15.52;9.05;;;;;;;-0.02;73.33;99638.47;10484214;28;20041;-81
2023/12/01 13:28:09;;;;;;;15.90;9.52;;;;;;;-0.14;72.98;99647.84;10480934;28;20044;-83
2023/12/01 13:33:14;;;;;;;13.40;8.23;;;;;;;-0.22;72.68;99647.34;10491956;28;20416;-83
2023/12/01 13:38:17;;;;;;;16.90;9.98;;;;;;;-0.31;72.44;99634.56;10465691;28;20052;-80
2023/12/01 13:43:20;;;;;;;14.27;9.05;;;;;;;-0.33;72.75;99639.06;10463324;28;20040;-83
2023/12/01 13:48:24;;;;;;;19.40;10.80;;;;;;;-0.41;73.19;99636.81;10476324;28;20055;-82
2023/12/01 13:53:27;;;;;;;19.52;11.20;;;;;;;-0.54;73.27;99643.59;10451287;28;20037;-80
2023/12/01 13:58:30;;;;;;;21.13;12.13;;;;;;;-0.61;73.27;99645.66;10446698;28;20056;-82
2023/12/01 14:03:35;;;;;;;24.05;10.75;;;;;;;-0.67;73.51;99651.22;10461789;28;20140;-81
2023/12/01 14:08:38;;;;;;;22.20;12.18;;;;;;;-0.73;74.13;99648.88;10470593;28;20041;-82
2023/12/01 14:13:42;;;;;;;20.55;11.57;;;;;;;-0.79;75.08;99657.06;10457173;28;20407;-81
2023/12/01 14:18:47;;;;;;;19.67;11.55;;;;;;;-0.95;74.85;99660.38;10494260;28;20741;-80
2023/12/01 14:23:51;;;;;;;18.23;11.45;;;;;;;-0.95;75.03;99672.72;10470753;28;20041;-81
2023/12/01 14:28:54;;;;;;;19.23;11.77;;;;;;;-1.03;75.81;99672.22;10460064;28;20632;-80
2023/12/01 14:33:59;;;;;;;20.63;11.25;;;;;;;-1.04;76.19;99679.25;10468001;28;20091;-80
2023/12/01 14:39:06;;;;;;;21.17;12.35;;;;;;;-1.13;75.75;99697.25;10458376;28;20033;-81
2023/12/01 14:44:09;;;;;;;20.73;11.77;;;;;;;-1.18;76.22;99690.41;10461885;28;20048;-80
2023/12/01 14:49:14;;;;;;;21.17;11.40;;;;;;;-1.23;76.01;99681.84;10489487;28;20037;-81
2023/12/01 14:54:17;;;;;;;23.40;11.57;;;;;;;-1.29;75.78;99694.41;10471371;28;20493;-83
2023/12/01 14:59:22;;;;;;;19.52;11.90;;;;;;;-1.27;76.37;99696.06;10475805;28;20051;-82
2023/12/01 15:04:26;;;;;;;23.38;12.07;;;;;;;-1.30;76.63;99700.63;10470162;28;20044;-81
2023/12/01 15:09:29;;;;;;;20.58;11.48;;;;;;;-1.31;76.47;99699.78;10469027;28;20037;-82
2023/12/01 15:14:32;;;;;;;23.27;11.63;;;;;;;-1.36;76.37;99695.63;10462840;28;20033;-82
2023/12/01 15:19:37;;;;;;;18.63;11.10;;;;;;;-1.49;75.84;99697.91;10454288;28;20037;-80
2023/12/01 15:24:40;;;;;;;18.77;11.18;;;;;;;-1.42;76.78;99700.22;10479112;28;20079;-81
2023/12/01 15:29:45;;;;;;;18.25;10.32;;;;;;;-1.41;76.50;99699.28;10488060;28;20049;-79
2023/12/01 15:34:51;;;;;;;16.45;9.30;;;;;;;-1.51;75.62;99702.38;10456589;28;20034;-82
2023/12/01 15:39:54;;;;;;;16.65;10.35;;;;;;;-1.58;75.47;99695.69;10456567;28;20048;-81
2023/12/01 15:44:58;;;;;;;19.90;10.05;;;;;;;-1.58;75.99;99698.31;10462607;28;20404;-84
2023/12/01 15:50:07;;;;;;;20.52;10.95;;;;;;;-1.51;76.18;99694.47;10474782;28;20036;-82
2023/12/01 15:55:12;;;;;;;20.60;10.98;;;;;;;-1.43;76.93;99716.09;10463519;28;20041;-82
2023/12/01 16:00:16;;;;;;;21.70;10.80;;;;;;;-1.38;76.57;99710.63;10456400;28;20148;-81
2023/12/01 16:05:22;;;;;;;21.17;10.93;;;;;;;-1.39;76.06;99709.78;10487596;28;20058;-82
2023/12/01 16:10:25;;;;;;;17.63;10.27;;;;;;;-1.39;76.55;99725.59;10477269;28;20110;-82
2023/12/01 16:15:28;;;;;;;18.35;9.23;;;;;;;-1.41;76.49;99725.63;10471386;28;20045;-81
2023/12/01 16:20:33;;;;;;;20.58;10.15;;;;;;;-1.44;75.75;99724.91;10462123;28;20045;-81
2023/12/01 16:25:37;;;;;;;18.17;9.55;;;;;;;-1.38;76.63;99727.28;10475619;28;20504;-82
2023/12/01 16:30:40;;;;;;;14.88;9.30;;;;;;;-1.27;76.72;99737.38;10478397;28;20043;-82
2023/12/01 16:35:44;;;;;;;16.92;9.77;;;;;;;-1.15;76.63;99733.34;10460104;28;20037;-81
2023/12/01 16:40:47;;;;;;;14.00;8.93;;;;;;;-1.21;76.35;99737.13;10449718;28;20069;-80
2023/12/01 16:45:50;;;;;;;22.35;9.70;;;;;;;-1.20;76.30;99733.56;10466832;28;20035;-81
2023/12/01 16:50:57;;;;;;;16.73;10.00;;;;;;;-1.25;75.83;99725.00;10493846;28;20029;-80
2023/12/01 16:56:04;;;;;;;18.10;9.80;;;;;;;-1.14;76.88;99720.13;10502733;28;20045;-81
2023/12/01 17:01:07;;;;;;;21.75;11.32;;;;;;;-1.05;76.73;99729.41;10463281;28;20051;-80
2023/12/01 17:06:15;;;;;;;20.80;11.88;;;;;;;-1.11;76.31;99730.53;10460740;28;20037;-80
2023/12/01 17:11:19;;;;;;;22.00;12.43;;;;;;;-1.19;76.70;99748.44;10454959;28;20049;-80
2023/12/01 17:16:22;;;;;;;21.63;12.20;;;;;;;-1.12;77.34;99744.66;10458899;28;20068;-80
2023/12/01 17:21:27;;;;;;;23.52;12.02;;;;;;;-1.02;77.52;99740.66;10478935;28;20049;-80
2023/12/01 17:26:30;;;;;;;23.60;12.10;;;;;;;-1.12;76.61;99744.66;10469920;28;20118;-80
2023/12/01 17:31:33;;;;;;;21.98;12.85;;;;;;;-1.10;77.16;99745.41;10452301;28;20128;-81
2023/12/01 17:36:37;;;;;;;27.73;15.10;;;;;;;-1.15;77.44;99744.78;10459331;28;20058;-81
2023/12/01 17:41:40;;;;;;;26.08;14.88;;;;;;;-1.10;77.76;99750.69;10457086;28;20052;-81
2023/12/01 17:46:44;;;;;;;31.98;15.05;;;;;;;-1.13;77.93;99739.44;10455713;28;20037;-80
2023/12/01 17:51:48;;;;;;;29.85;16.55;;;;;;;-1.14;78.19;99738.56;10464118;28;20049;-81
2023/12/01 17:56:51;;;;;;;33.33;15.70;;;;;;;-1.23;78.50;99741.63;10469811;28;20042;-81
2023/12/01 18:01:54;;;;;;;35.38;17.65;;;;;;;-1.30;78.51;99734.88;10462746;28;20150;-78
2023/12/01 18:06:59;;;;;;;33.08;16.25;;;;;;;-1.27;78.86;99737.38;10471922;28;20044;-80
2023/12/01 18:12:02;;;;;;;39.55;18.50;;;;;;;-1.28;79.37;99728.63;10464849;28;20064;-81
2023/12/01 18:17:06;;;;;;;40.53;18.95;;;;;;;-1.35;79.11;99734.22;10445096;28;20033;-82
2023/12/01 18:22:10;;;;;;;49.58;21.88;;;;;;;-1.44;79.31;99733.69;10462368;28;20578;-80
2023/12/01 18:27:15;;;;;;;46.85;21.27;;;;;;;-1.32;79.86;99739.34;10463199;28;20056;-81
2023/12/01 18:32:19;;;;;;;45.92;20.23;;;;;;;-1.33;79.69;99748.19;10458506;28;20488;-82
2023/12/01 18:37:23;;;;;;;49.92;21.40;;;;;;;-1.36;79.79;99738.63;10463028;28;20070;-82
2023/12/01 18:42:26;;;;;;;49.67;21.98;;;;;;;-1.46;80.23;99751.31;10459004;28;20041;-81
2023/12/01 18:47:35;;;;;;;55.13;23.63;;;;;;;-1.54;80.44;99753.41;10460606;28;20060;-80
2023/12/01 18:52:40;;;;;;;58.00;25.38;;;;;;;-1.59;80.67;99757.16;10471261;28;20032;-80
2023/12/01 18:57:43;;;;;;;60.08;26.17;;;;;;;-1.68;80.79;99764.50;10491317;28;20438;-81
2023/12/01 19:02:47;;;;;;;54.15;24.83;;;;;;;-1.67;80.74;99766.25;10472186;28;20071;-81
2023/12/01 19:07:52;;;;;;;55.30;25.33;;;;;;;-1.72;80.59;99764.72;10496550;28;20342;-82
2023/12/01 19:12:55;;;;;;;59.28;24.48;;;;;;;-1.87;80.71;99774.91;10475845;28;20053;-81
2023/12/01 19:17:59;;;;;;;55.88;24.33;;;;;;;-1.97;80.88;99775.38;10491183;28;20045;-81
2023/12/01 19:23:03;;;;;;;58.28;23.73;;;;;;;-2.00;81.04;99778.97;10479826;28;20047;-81
2023/12/01 19:28:07;;;;;;;57.00;23.75;;;;;;;-1.92;81.91;99786.53;10478434;28;20036;-83
2023/12/01 19:33:11;;;;;;;54.50;23.20;;;;;;;-1.79;81.55;99782.53;10474615;28;20060;-80
2023/12/01 19:38:17;;;;;;;55.38;24.40;;;;;;;-1.70;81.65;99782.19;10465457;28;20513;-82
2023/12/01 19:43:20;;;;;;;48.65;22.65;;;;;;;-1.62;81.44;99777.47;10460016;28;20057;-79
2023/12/01 19:48:23;;;;;;;47.22;21.55;;;;;;;-1.59;81.33;99780.84;10472842;28;20381;-81
2023/12/01 19:53:28;;;;;;;54.90;22.80;;;;;;;-1.51;81.29;99784.03;10464426;28;20466;-80
2023/12/01 19:58:32;;;;;;;48.63;22.65;;;;;;;-1.49;80.71;99782.22;10471651;28;20059;-81
2023/12/01 20:03:40;;;;;;;45.22;20.88;;;;;;;-1.46;80.77;99779.44;10465626;28;20052;-80
2023/12/01 20:08:44;;;;;;;46.78;21.85;;;;;;;-1.40;80.60;99769.53;10462423;28;20039;-82
2023/12/01 20:13:48;;;;;;;49.42;22.20;;;;;;;-1.39;80.23;99783.56;10463960;28;20121;-81
2023/12/01 20:18:51;;;;;;;52.65;23.75;;;;;;;-1.43;80.01;99781.94;10464818;28;20122;-80
2023/12/01 20:23:56;;;;;;;42.40;20.48;;;;;;;-1.43;80.01;99795.13;10485800;28;20115;-80
2023/12/01 20:28:59;;;;;;;43.42;20.30;;;;;;;-1.38;79.85;99787.03;10471709;28;20097;-81
2023/12/01 20:34:02;;;;;;;39.80;18.92;;;;;;;-1.36;79.86;99798.38;10484192;28;20069;-81
2023/12/01 20:39:08;;;;;;;42.22;19.13;;;;;;;-1.32;79.99;99790.28;10505150;28;20033;-82
2023/12/01 20:44:12;;;;;;;44.38;19.92;;;;;;;-1.32;79.63;99785.00;10508893;28;20052;-82
2023/12/01 20:49:18;;;;;;;40.42;19.55;;;;;;;-1.37;79.62;99792.25;10506529;28;20045;-82
2023/12/01 20:54:26;;;;;;;38.35;18.48;;;;;;;-1.39;79.03;99802.00;10499000;28;20136;-79
2023/12/01 20:59:29;;;;;;;35.83;16.55;;;;;;;-1.46;79.09;99792.63;10484511;28;20515;-79
2023/12/01 21:04:33;;;;;;;30.95;15.75;;;;;;;-1.44;79.28;99796.06;10486801;28;20048;-80
2023/12/01 21:09:38;;;;;;;35.58;17.33;;;;;;;-1.37;79.15;99796.66;10499444;28;20045;-81
2023/12/01 21:14:41;;;;;;;28.73;13.30;;;;;;;-1.32;78.40;99797.31;10485392;28;20045;-80
2023/12/01 21:19:46;;;;;;;28.40;13.68;;;;;;;-1.36;77.68;99799.22;10472349;28;20041;-80
2023/12/01 21:24:51;;;;;;;29.23;14.82;;;;;;;-1.34;77.73;99797.41;10486126;28;20044;-80
2023/12/01 21:29:54;;;;;;;30.83;16.02;;;;;;;-1.34;77.46;99800.03;10469020;28;20038;-80
2023/12/01 21:34:58;;;;;;;33.05;15.73;;;;;;;-1.31;77.06;99802.53;10486589;28;20044;-80
2023/12/01 21:40:04;;;;;;;27.55;13.88;;;;;;;-1.48;75.87;99805.00;10497415;28;20045;-83
2023/12/01 21:45:10;;;;;;;30.00;13.77;;;;;;;-1.62;76.68;99800.28;10477610;28;20075;-82
2023/12/01 21:50:16;;;;;;;25.95;13.68;;;;;;;-1.76;76.29;99803.47;10473140;28;20135;-82
2023/12/01 21:55:21;;;;;;;25.05;12.43;;;;;;;-1.83;76.85;99809.91;10487179;28;20108;-82
2023/12/01 22:00:25;;;;;;;25.55;13.07;;;;;;;-1.76;77.37;99808.72;10454836;28;20856;-81
2023/12/01 22:05:28;;;;;;;25.58;13.18;;;;;;;-1.63;77.65;99806.47;10455707;28;20064;-80
2023/12/01 22:10:32;;;;;;;25.70;13.38;;;;;;;-1.52;77.75;99808.69;10486126;28;20476;-82
2023/12/01 22:15:35;;;;;;;25.80;12.55;;;;;;;-1.51;78.01;99811.28;10458852;28;20190;-82
2023/12/01 22:20:38;;;;;;;22.85;12.02;;;;;;;-1.55;77.41;99811.44;10472286;28;20044;-81
2023/12/01 22:25:43;;;;;;;25.23;13.00;;;;;;;-1.65;78.13;99822.31;10463574;28;20045;-81
2023/12/01 22:30:48;;;;;;;32.63;14.98;;;;;;;-1.67;78.81;99826.81;10471271;28;20056;-82
2023/12/01 22:35:51;;;;;;;26.70;14.00;;;;;;;-1.71;78.83;99819.09;10467985;28;20091;-79
2023/12/01 22:40:56;;;;;;;25.08;13.48;;;;;;;-1.58;79.23;99828.22;10472486;28;20079;-81
2023/12/01 22:45:59;;;;;;;27.58;13.40;;;;;;;-1.50;78.95;99835.81;10498022;28;20071;-82
2023/12/01 22:51:07;;;;;;;25.60;13.32;;;;;;;-1.49;78.88;99829.63;10509352;28;20051;-83
2023/12/01 22:56:13;;;;;;;27.25;12.95;;;;;;;-1.52;79.06;99835.88;10483266;28;20037;-82
2023/12/01 23:01:16;;;;;;;26.65;14.07;;;;;;;-1.58;78.62;99838.75;10471974;28;20102;-81